sensor_id;sensor_type;location;lat;lon;timestamp;P1;durP1;ratioP1;P2;durP2;ratioP2
75537;SDS011;64121;48.666;8.114;2023-06-26T00:02:06;6.45;;;5.30;;
75537;SDS011;64121;48.666;8.114;2023-06-26T00:04:32;6.53;;;5.30;;
75537;SDS011;64121;48.666;8.114;2023-06-26T00:06:58;7.70;;;5.65;;
75537;SDS011;64121;48.666;8.114;2023-06-26T00:09:23;6.43;;;5.00;;
75537;SDS011;64121;48.666;8.114;2023-06-26T00:11:48;7.05;;;5.38;;
75537;SDS011;64121;48.666;8.114;2023-06-26T00:14:14;7.65;;;5.70;;
75537;SDS011;64121;48.666;8.114;2023-06-26T00:16:39;9.25;;;5.63;;
75537;SDS011;64121;48.666;8.114;2023-06-26T00:19:04;7.03;;;5.72;;
75537;SDS011;64121;48.666;8.114;2023-06-26T00:21:31;6.53;;;4.93;;
75537;SDS011;64121;48.666;8.114;2023-06-26T00:23:56;6.15;;;4.43;;
75537;SDS011;64121;48.666;8.114;2023-06-26T00:26:22;6.93;;;4.40;;
75537;SDS011;64121;48.666;8.114;2023-06-26T00:28:47;6.93;;;5.43;;
75537;SDS011;64121;48.666;8.114;2023-06-26T00:31:12;7.28;;;5.32;;
75537;SDS011;64121;48.666;8.114;2023-06-26T00:33:38;6.53;;;5.35;;
75537;SDS011;64121;48.666;8.114;2023-06-26T00:36:03;7.38;;;5.57;;
75537;SDS011;64121;48.666;8.114;2023-06-26T00:38:30;7.90;;;5.57;;
75537;SDS011;64121;48.666;8.114;2023-06-26T00:40:55;7.90;;;5.82;;
75537;SDS011;64121;48.666;8.114;2023-06-26T00:43:21;7.82;;;5.72;;
75537;SDS011;64121;48.666;8.114;2023-06-26T00:45:46;8.45;;;5.97;;
75537;SDS011;64121;48.666;8.114;2023-06-26T00:48:12;8.63;;;5.50;;
75537;SDS011;64121;48.666;8.114;2023-06-26T00:50:37;9.20;;;7.18;;
75537;SDS011;64121;48.666;8.114;2023-06-26T00:53:03;7.55;;;5.68;;
75537;SDS011;64121;48.666;8.114;2023-06-26T00:55:29;8.13;;;6.18;;
75537;SDS011;64121;48.666;8.114;2023-06-26T00:57:55;7.28;;;5.70;;
75537;SDS011;64121;48.666;8.114;2023-06-26T01:00:21;7.00;;;5.32;;
75537;SDS011;64121;48.666;8.114;2023-06-26T01:02:46;8.27;;;5.82;;
75537;SDS011;64121;48.666;8.114;2023-06-26T01:05:11;8.48;;;5.78;;
75537;SDS011;64121;48.666;8.114;2023-06-26T01:07:38;7.70;;;5.97;;
75537;SDS011;64121;48.666;8.114;2023-06-26T01:10:04;7.25;;;5.80;;
75537;SDS011;64121;48.666;8.114;2023-06-26T01:12:32;7.25;;;5.75;;
75537;SDS011;64121;48.666;8.114;2023-06-26T01:14:58;7.55;;;5.95;;
75537;SDS011;64121;48.666;8.114;2023-06-26T01:17:24;7.95;;;5.57;;
75537;SDS011;64121;48.666;8.114;2023-06-26T01:19:51;7.75;;;5.80;;
75537;SDS011;64121;48.666;8.114;2023-06-26T01:22:19;8.30;;;5.40;;
75537;SDS011;64121;48.666;8.114;2023-06-26T01:25:02;7.60;;;5.75;;
75537;SDS011;64121;48.666;8.114;2023-06-26T01:27:37;7.38;;;6.07;;
75537;SDS011;64121;48.666;8.114;2023-06-26T01:30:03;7.47;;;5.50;;
75537;SDS011;64121;48.666;8.114;2023-06-26T01:32:31;7.85;;;5.80;;
75537;SDS011;64121;48.666;8.114;2023-06-26T01:34:58;7.18;;;5.45;;
75537;SDS011;64121;48.666;8.114;2023-06-26T01:37:24;7.20;;;5.55;;
75537;SDS011;64121;48.666;8.114;2023-06-26T01:39:49;7.80;;;5.85;;
75537;SDS011;64121;48.666;8.114;2023-06-26T01:42:14;8.20;;;5.72;;
75537;SDS011;64121;48.666;8.114;2023-06-26T01:44:42;6.78;;;5.38;;
75537;SDS011;64121;48.666;8.114;2023-06-26T01:47:10;6.95;;;5.30;;
75537;SDS011;64121;48.666;8.114;2023-06-26T01:49:43;7.28;;;4.90;;
75537;SDS011;64121;48.666;8.114;2023-06-26T01:52:14;7.43;;;5.50;;
75537;SDS011;64121;48.666;8.114;2023-06-26T01:54:47;6.03;;;5.00;;
75537;SDS011;64121;48.666;8.114;2023-06-26T01:57:17;7.25;;;5.80;;
75537;SDS011;64121;48.666;8.114;2023-06-26T01:59:45;8.02;;;5.20;;
75537;SDS011;64121;48.666;8.114;2023-06-26T02:02:12;7.85;;;4.90;;
75537;SDS011;64121;48.666;8.114;2023-06-26T02:04:37;6.28;;;4.63;;
75537;SDS011;64121;48.666;8.114;2023-06-26T02:07:03;7.45;;;5.45;;
75537;SDS011;64121;48.666;8.114;2023-06-26T02:09:28;7.18;;;5.25;;
75537;SDS011;64121;48.666;8.114;2023-06-26T02:11:54;7.70;;;4.82;;
75537;SDS011;64121;48.666;8.114;2023-06-26T02:14:19;6.63;;;4.78;;
75537;SDS011;64121;48.666;8.114;2023-06-26T02:16:46;7.03;;;4.95;;
75537;SDS011;64121;48.666;8.114;2023-06-26T02:19:11;5.70;;;4.68;;
75537;SDS011;64121;48.666;8.114;2023-06-26T02:21:36;5.97;;;4.85;;
75537;SDS011;64121;48.666;8.114;2023-06-26T02:24:02;6.97;;;4.70;;
75537;SDS011;64121;48.666;8.114;2023-06-26T02:26:27;6.32;;;4.70;;
75537;SDS011;64121;48.666;8.114;2023-06-26T02:28:53;6.93;;;5.30;;
75537;SDS011;64121;48.666;8.114;2023-06-26T02:31:18;6.85;;;5.07;;
75537;SDS011;64121;48.666;8.114;2023-06-26T02:33:45;7.28;;;4.93;;
75537;SDS011;64121;48.666;8.114;2023-06-26T02:36:10;5.78;;;4.82;;
75537;SDS011;64121;48.666;8.114;2023-06-26T02:38:35;7.18;;;5.50;;
75537;SDS011;64121;48.666;8.114;2023-06-26T02:41:01;6.38;;;5.10;;
75537;SDS011;64121;48.666;8.114;2023-06-26T02:43:26;7.57;;;5.68;;
75537;SDS011;64121;48.666;8.114;2023-06-26T02:45:51;7.10;;;4.95;;
75537;SDS011;64121;48.666;8.114;2023-06-26T02:48:17;7.65;;;5.35;;
75537;SDS011;64121;48.666;8.114;2023-06-26T02:50:43;7.75;;;5.75;;
75537;SDS011;64121;48.666;8.114;2023-06-26T02:53:09;6.47;;;5.03;;
75537;SDS011;64121;48.666;8.114;2023-06-26T02:55:34;8.13;;;5.53;;
75537;SDS011;64121;48.666;8.114;2023-06-26T02:57:59;5.70;;;4.80;;
75537;SDS011;64121;48.666;8.114;2023-06-26T03:00:25;7.15;;;5.50;;
75537;SDS011;64121;48.666;8.114;2023-06-26T03:02:50;6.60;;;5.28;;
75537;SDS011;64121;48.666;8.114;2023-06-26T03:05:15;7.75;;;5.13;;
75537;SDS011;64121;48.666;8.114;2023-06-26T03:07:42;6.20;;;5.00;;
75537;SDS011;64121;48.666;8.114;2023-06-26T03:10:07;7.38;;;5.85;;
75537;SDS011;64121;48.666;8.114;2023-06-26T03:12:33;6.90;;;5.10;;
75537;SDS011;64121;48.666;8.114;2023-06-26T03:14:58;8.27;;;5.32;;
75537;SDS011;64121;48.666;8.114;2023-06-26T03:17:23;7.32;;;5.72;;
75537;SDS011;64121;48.666;8.114;2023-06-26T03:19:49;7.38;;;5.72;;
75537;SDS011;64121;48.666;8.114;2023-06-26T03:22:14;7.95;;;5.70;;
75537;SDS011;64121;48.666;8.114;2023-06-26T03:24:41;6.50;;;4.90;;
75537;SDS011;64121;48.666;8.114;2023-06-26T03:27:06;6.85;;;5.30;;
75537;SDS011;64121;48.666;8.114;2023-06-26T03:29:32;8.73;;;5.53;;
75537;SDS011;64121;48.666;8.114;2023-06-26T03:31:57;7.43;;;5.40;;
75537;SDS011;64121;48.666;8.114;2023-06-26T03:34:23;7.40;;;5.18;;
75537;SDS011;64121;48.666;8.114;2023-06-26T03:36:48;6.13;;;4.95;;
75537;SDS011;64121;48.666;8.114;2023-06-26T03:39:13;8.70;;;5.00;;
75537;SDS011;64121;48.666;8.114;2023-06-26T03:41:40;7.20;;;5.13;;
75537;SDS011;64121;48.666;8.114;2023-06-26T03:44:05;7.45;;;5.22;;
75537;SDS011;64121;48.666;8.114;2023-06-26T03:46:31;7.25;;;5.55;;
75537;SDS011;64121;48.666;8.114;2023-06-26T03:48:56;7.20;;;5.57;;
75537;SDS011;64121;48.666;8.114;2023-06-26T03:51:21;6.75;;;5.32;;
75537;SDS011;64121;48.666;8.114;2023-06-26T03:53:47;7.32;;;5.00;;
75537;SDS011;64121;48.666;8.114;2023-06-26T03:56:12;6.00;;;5.13;;
75537;SDS011;64121;48.666;8.114;2023-06-26T03:58:39;8.55;;;5.57;;
75537;SDS011;64121;48.666;8.114;2023-06-26T04:01:04;8.15;;;5.47;;
75537;SDS011;64121;48.666;8.114;2023-06-26T04:03:30;8.65;;;5.35;;
75537;SDS011;64121;48.666;8.114;2023-06-26T04:05:55;8.60;;;5.82;;
75537;SDS011;64121;48.666;8.114;2023-06-26T04:08:20;6.82;;;5.13;;
75537;SDS011;64121;48.666;8.114;2023-06-26T04:10:46;9.50;;;5.90;;
75537;SDS011;64121;48.666;8.114;2023-06-26T04:13:11;7.43;;;5.63;;
75537;SDS011;64121;48.666;8.114;2023-06-26T04:15:38;6.80;;;5.70;;
75537;SDS011;64121;48.666;8.114;2023-06-26T04:18:03;7.60;;;5.10;;
75537;SDS011;64121;48.666;8.114;2023-06-26T04:20:28;6.15;;;5.13;;
75537;SDS011;64121;48.666;8.114;2023-06-26T04:22:54;6.38;;;5.22;;
75537;SDS011;64121;48.666;8.114;2023-06-26T04:25:19;6.25;;;5.03;;
75537;SDS011;64121;48.666;8.114;2023-06-26T04:27:44;8.88;;;5.80;;
75537;SDS011;64121;48.666;8.114;2023-06-26T04:30:10;6.22;;;4.88;;
75537;SDS011;64121;48.666;8.114;2023-06-26T04:32:38;7.72;;;5.75;;
75537;SDS011;64121;48.666;8.114;2023-06-26T04:35:03;7.72;;;5.15;;
75537;SDS011;64121;48.666;8.114;2023-06-26T04:37:29;10.00;;;5.57;;
75537;SDS011;64121;48.666;8.114;2023-06-26T04:39:54;7.38;;;5.53;;
75537;SDS011;64121;48.666;8.114;2023-06-26T04:42:19;7.97;;;5.68;;
75537;SDS011;64121;48.666;8.114;2023-06-26T04:44:45;7.35;;;5.32;;
75537;SDS011;64121;48.666;8.114;2023-06-26T04:47:10;7.50;;;5.78;;
75537;SDS011;64121;48.666;8.114;2023-06-26T04:49:37;7.30;;;5.55;;
75537;SDS011;64121;48.666;8.114;2023-06-26T04:52:02;8.68;;;5.70;;
75537;SDS011;64121;48.666;8.114;2023-06-26T04:54:28;7.25;;;5.47;;
75537;SDS011;64121;48.666;8.114;2023-06-26T04:56:53;8.40;;;5.68;;
75537;SDS011;64121;48.666;8.114;2023-06-26T04:59:19;10.75;;;5.82;;
75537;SDS011;64121;48.666;8.114;2023-06-26T05:01:44;9.07;;;6.65;;
75537;SDS011;64121;48.666;8.114;2023-06-26T05:04:09;7.18;;;5.45;;
75537;SDS011;64121;48.666;8.114;2023-06-26T05:06:36;7.28;;;6.30;;
75537;SDS011;64121;48.666;8.114;2023-06-26T05:09:01;7.93;;;6.15;;
75537;SDS011;64121;48.666;8.114;2023-06-26T05:11:27;7.35;;;5.82;;
75537;SDS011;64121;48.666;8.114;2023-06-26T05:13:52;7.93;;;6.18;;
75537;SDS011;64121;48.666;8.114;2023-06-26T05:16:17;7.30;;;5.60;;
75537;SDS011;64121;48.666;8.114;2023-06-26T05:18:43;7.53;;;5.68;;
75537;SDS011;64121;48.666;8.114;2023-06-26T05:21:08;6.60;;;5.60;;
75537;SDS011;64121;48.666;8.114;2023-06-26T05:23:35;7.68;;;5.90;;
75537;SDS011;64121;48.666;8.114;2023-06-26T05:26:01;8.13;;;6.13;;
75537;SDS011;64121;48.666;8.114;2023-06-26T05:28:27;8.13;;;5.95;;
75537;SDS011;64121;48.666;8.114;2023-06-26T05:30:53;8.02;;;6.18;;
75537;SDS011;64121;48.666;8.114;2023-06-26T05:33:19;7.93;;;6.22;;
75537;SDS011;64121;48.666;8.114;2023-06-26T05:35:48;7.35;;;6.65;;
75537;SDS011;64121;48.666;8.114;2023-06-26T05:38:14;7.97;;;6.10;;
75537;SDS011;64121;48.666;8.114;2023-06-26T05:40:41;7.88;;;6.45;;
75537;SDS011;64121;48.666;8.114;2023-06-26T05:43:07;7.95;;;6.63;;
75537;SDS011;64121;48.666;8.114;2023-06-26T05:45:33;8.23;;;5.72;;
75537;SDS011;64121;48.666;8.114;2023-06-26T05:47:58;9.18;;;7.10;;
75537;SDS011;64121;48.666;8.114;2023-06-26T05:50:24;8.80;;;6.10;;
75537;SDS011;64121;48.666;8.114;2023-06-26T05:52:50;9.50;;;6.35;;
75537;SDS011;64121;48.666;8.114;2023-06-26T05:55:16;9.52;;;6.38;;
75537;SDS011;64121;48.666;8.114;2023-06-26T05:57:43;7.28;;;6.50;;
75537;SDS011;64121;48.666;8.114;2023-06-26T06:00:11;7.82;;;5.75;;
75537;SDS011;64121;48.666;8.114;2023-06-26T06:02:37;8.13;;;6.50;;
75537;SDS011;64121;48.666;8.114;2023-06-26T06:05:03;7.50;;;5.97;;
75537;SDS011;64121;48.666;8.114;2023-06-26T06:07:29;8.95;;;6.18;;
75537;SDS011;64121;48.666;8.114;2023-06-26T06:09:54;9.52;;;6.78;;
75537;SDS011;64121;48.666;8.114;2023-06-26T06:12:19;10.25;;;6.57;;
75537;SDS011;64121;48.666;8.114;2023-06-26T06:14:46;8.75;;;6.32;;
75537;SDS011;64121;48.666;8.114;2023-06-26T06:17:11;7.80;;;5.88;;
75537;SDS011;64121;48.666;8.114;2023-06-26T06:19:37;8.63;;;6.13;;
75537;SDS011;64121;48.666;8.114;2023-06-26T06:22:02;7.65;;;5.95;;
75537;SDS011;64121;48.666;8.114;2023-06-26T06:24:28;10.07;;;6.80;;
75537;SDS011;64121;48.666;8.114;2023-06-26T06:26:53;6.55;;;5.63;;
75537;SDS011;64121;48.666;8.114;2023-06-26T06:29:19;8.45;;;6.05;;
75537;SDS011;64121;48.666;8.114;2023-06-26T06:31:45;9.35;;;6.13;;
75537;SDS011;64121;48.666;8.114;2023-06-26T06:34:11;8.75;;;6.93;;
75537;SDS011;64121;48.666;8.114;2023-06-26T06:36:36;8.23;;;6.55;;
75537;SDS011;64121;48.666;8.114;2023-06-26T06:39:01;8.65;;;6.82;;
75537;SDS011;64121;48.666;8.114;2023-06-26T06:41:27;8.25;;;6.63;;
75537;SDS011;64121;48.666;8.114;2023-06-26T06:43:52;7.50;;;6.30;;
75537;SDS011;64121;48.666;8.114;2023-06-26T06:46:17;6.90;;;5.65;;
75537;SDS011;64121;48.666;8.114;2023-06-26T06:48:44;8.43;;;6.97;;
75537;SDS011;64121;48.666;8.114;2023-06-26T06:51:10;8.52;;;6.10;;
75537;SDS011;64121;48.666;8.114;2023-06-26T06:53:35;8.13;;;6.25;;
75537;SDS011;64121;48.666;8.114;2023-06-26T06:56:00;7.25;;;6.25;;
75537;SDS011;64121;48.666;8.114;2023-06-26T06:58:26;7.72;;;6.47;;
75537;SDS011;64121;48.666;8.114;2023-06-26T07:00:51;7.22;;;5.82;;
75537;SDS011;64121;48.666;8.114;2023-06-26T07:03:16;7.43;;;6.22;;
75537;SDS011;64121;48.666;8.114;2023-06-26T07:05:44;7.88;;;6.43;;
75537;SDS011;64121;48.666;8.114;2023-06-26T07:08:09;8.10;;;6.03;;
75537;SDS011;64121;48.666;8.114;2023-06-26T07:10:35;7.43;;;6.30;;
75537;SDS011;64121;48.666;8.114;2023-06-26T07:13:00;8.07;;;6.25;;
75537;SDS011;64121;48.666;8.114;2023-06-26T07:15:26;6.72;;;5.90;;
75537;SDS011;64121;48.666;8.114;2023-06-26T07:17:51;7.32;;;6.53;;
75537;SDS011;64121;48.666;8.114;2023-06-26T07:20:17;8.57;;;6.43;;
75537;SDS011;64121;48.666;8.114;2023-06-26T07:22:44;6.40;;;5.78;;
75537;SDS011;64121;48.666;8.114;2023-06-26T07:25:09;6.90;;;6.07;;
75537;SDS011;64121;48.666;8.114;2023-06-26T07:27:35;6.78;;;6.10;;
75537;SDS011;64121;48.666;8.114;2023-06-26T07:30:00;6.68;;;5.70;;
75537;SDS011;64121;48.666;8.114;2023-06-26T07:32:25;7.30;;;6.20;;
75537;SDS011;64121;48.666;8.114;2023-06-26T07:34:51;7.20;;;5.95;;
75537;SDS011;64121;48.666;8.114;2023-06-26T07:37:16;7.15;;;6.03;;
75537;SDS011;64121;48.666;8.114;2023-06-26T07:39:43;9.05;;;6.13;;
75537;SDS011;64121;48.666;8.114;2023-06-26T07:42:08;7.82;;;5.97;;
75537;SDS011;64121;48.666;8.114;2023-06-26T07:44:33;7.07;;;6.38;;
75537;SDS011;64121;48.666;8.114;2023-06-26T07:46:59;7.13;;;6.43;;
75537;SDS011;64121;48.666;8.114;2023-06-26T07:49:24;7.25;;;6.53;;
75537;SDS011;64121;48.666;8.114;2023-06-26T07:51:50;7.65;;;5.93;;
75537;SDS011;64121;48.666;8.114;2023-06-26T07:54:15;7.68;;;6.18;;
75537;SDS011;64121;48.666;8.114;2023-06-26T07:56:53;7.55;;;6.53;;
75537;SDS011;64121;48.666;8.114;2023-06-26T07:59:20;6.72;;;5.75;;
75537;SDS011;64121;48.666;8.114;2023-06-26T08:01:45;7.90;;;6.30;;
75537;SDS011;64121;48.666;8.114;2023-06-26T08:04:11;7.68;;;6.28;;
75537;SDS011;64121;48.666;8.114;2023-06-26T08:06:36;9.82;;;6.35;;
75537;SDS011;64121;48.666;8.114;2023-06-26T08:09:01;7.78;;;6.60;;
75537;SDS011;64121;48.666;8.114;2023-06-26T08:11:27;7.53;;;6.28;;
75537;SDS011;64121;48.666;8.114;2023-06-26T08:13:54;8.02;;;6.28;;
75537;SDS011;64121;48.666;8.114;2023-06-26T08:16:19;6.28;;;5.68;;
75537;SDS011;64121;48.666;8.114;2023-06-26T08:18:44;7.43;;;5.63;;
75537;SDS011;64121;48.666;8.114;2023-06-26T08:21:10;8.10;;;5.82;;
75537;SDS011;64121;48.666;8.114;2023-06-26T08:23:35;7.28;;;6.03;;
75537;SDS011;64121;48.666;8.114;2023-06-26T08:26:00;9.77;;;6.40;;
75537;SDS011;64121;48.666;8.114;2023-06-26T08:28:26;11.65;;;6.90;;
75537;SDS011;64121;48.666;8.114;2023-06-26T08:30:53;8.85;;;6.70;;
75537;SDS011;64121;48.666;8.114;2023-06-26T08:33:18;9.20;;;6.82;;
75537;SDS011;64121;48.666;8.114;2023-06-26T08:35:43;8.05;;;6.15;;
75537;SDS011;64121;48.666;8.114;2023-06-26T08:38:09;9.95;;;6.45;;
75537;SDS011;64121;48.666;8.114;2023-06-26T08:40:34;9.73;;;6.78;;
75537;SDS011;64121;48.666;8.114;2023-06-26T08:42:59;8.05;;;6.00;;
75537;SDS011;64121;48.666;8.114;2023-06-26T08:45:24;8.05;;;6.60;;
75537;SDS011;64121;48.666;8.114;2023-06-26T08:47:52;10.20;;;7.32;;
75537;SDS011;64121;48.666;8.114;2023-06-26T08:50:20;7.18;;;6.47;;
75537;SDS011;64121;48.666;8.114;2023-06-26T08:52:50;7.30;;;6.30;;
75537;SDS011;64121;48.666;8.114;2023-06-26T08:55:21;7.68;;;6.43;;
75537;SDS011;64121;48.666;8.114;2023-06-26T08:57:50;8.57;;;6.00;;
75537;SDS011;64121;48.666;8.114;2023-06-26T09:00:16;6.90;;;6.03;;
75537;SDS011;64121;48.666;8.114;2023-06-26T09:02:42;7.25;;;6.05;;
75537;SDS011;64121;48.666;8.114;2023-06-26T09:05:10;9.32;;;6.18;;
75537;SDS011;64121;48.666;8.114;2023-06-26T09:07:36;8.32;;;6.22;;
75537;SDS011;64121;48.666;8.114;2023-06-26T09:10:01;6.15;;;5.55;;
75537;SDS011;64121;48.666;8.114;2023-06-26T09:12:27;6.88;;;6.10;;
75537;SDS011;64121;48.666;8.114;2023-06-26T09:14:53;6.65;;;5.57;;
75537;SDS011;64121;48.666;8.114;2023-06-26T09:17:20;9.73;;;6.22;;
75537;SDS011;64121;48.666;8.114;2023-06-26T09:19:49;8.43;;;6.20;;
75537;SDS011;64121;48.666;8.114;2023-06-26T09:22:16;7.60;;;5.78;;
75537;SDS011;64121;48.666;8.114;2023-06-26T09:24:41;8.60;;;5.82;;
75537;SDS011;64121;48.666;8.114;2023-06-26T09:27:08;6.88;;;6.18;;
75537;SDS011;64121;48.666;8.114;2023-06-26T09:29:34;9.00;;;5.85;;
75537;SDS011;64121;48.666;8.114;2023-06-26T09:31:59;7.38;;;5.38;;
75537;SDS011;64121;48.666;8.114;2023-06-26T09:34:29;7.03;;;5.57;;
75537;SDS011;64121;48.666;8.114;2023-06-26T09:36:55;9.63;;;5.97;;
75537;SDS011;64121;48.666;8.114;2023-06-26T09:39:22;8.13;;;5.75;;
75537;SDS011;64121;48.666;8.114;2023-06-26T09:41:47;7.60;;;5.57;;
75537;SDS011;64121;48.666;8.114;2023-06-26T09:44:13;6.05;;;5.45;;
75537;SDS011;64121;48.666;8.114;2023-06-26T09:46:39;10.00;;;5.75;;
75537;SDS011;64121;48.666;8.114;2023-06-26T09:49:05;7.10;;;5.88;;
75537;SDS011;64121;48.666;8.114;2023-06-26T09:51:32;10.55;;;5.88;;
75537;SDS011;64121;48.666;8.114;2023-06-26T09:53:58;7.70;;;5.63;;
75537;SDS011;64121;48.666;8.114;2023-06-26T09:56:25;7.95;;;5.75;;
75537;SDS011;64121;48.666;8.114;2023-06-26T09:58:52;5.82;;;5.25;;
75537;SDS011;64121;48.666;8.114;2023-06-26T10:01:18;6.40;;;5.40;;
75537;SDS011;64121;48.666;8.114;2023-06-26T10:03:43;6.45;;;5.32;;
75537;SDS011;64121;48.666;8.114;2023-06-26T10:06:09;5.40;;;4.85;;
75537;SDS011;64121;48.666;8.114;2023-06-26T10:08:36;7.25;;;4.93;;
75537;SDS011;64121;48.666;8.114;2023-06-26T10:11:04;6.40;;;5.18;;
75537;SDS011;64121;48.666;8.114;2023-06-26T10:13:31;5.75;;;5.03;;
75537;SDS011;64121;48.666;8.114;2023-06-26T10:16:03;6.10;;;5.18;;
75537;SDS011;64121;48.666;8.114;2023-06-26T10:18:31;6.00;;;4.43;;
75537;SDS011;64121;48.666;8.114;2023-06-26T10:20:58;7.13;;;5.63;;
75537;SDS011;64121;48.666;8.114;2023-06-26T10:23:26;6.75;;;4.50;;
75537;SDS011;64121;48.666;8.114;2023-06-26T10:25:54;7.25;;;4.80;;
75537;SDS011;64121;48.666;8.114;2023-06-26T10:28:23;6.90;;;5.07;;
75537;SDS011;64121;48.666;8.114;2023-06-26T10:30:51;5.68;;;4.50;;
75537;SDS011;64121;48.666;8.114;2023-06-26T10:33:18;5.63;;;4.10;;
75537;SDS011;64121;48.666;8.114;2023-06-26T10:35:45;7.95;;;4.30;;
75537;SDS011;64121;48.666;8.114;2023-06-26T10:38:11;5.00;;;4.15;;
75537;SDS011;64121;48.666;8.114;2023-06-26T10:40:40;6.35;;;4.60;;
75537;SDS011;64121;48.666;8.114;2023-06-26T10:43:07;5.88;;;4.07;;
75537;SDS011;64121;48.666;8.114;2023-06-26T10:45:33;5.38;;;4.45;;
75537;SDS011;64121;48.666;8.114;2023-06-26T10:48:00;7.60;;;4.03;;
75537;SDS011;64121;48.666;8.114;2023-06-26T10:50:27;4.70;;;3.75;;
75537;SDS011;64121;48.666;8.114;2023-06-26T10:53:09;7.75;;;4.30;;
75537;SDS011;64121;48.666;8.114;2023-06-26T10:55:35;3.90;;;3.43;;
75537;SDS011;64121;48.666;8.114;2023-06-26T10:58:01;5.22;;;3.80;;
75537;SDS011;64121;48.666;8.114;2023-06-26T11:00:27;5.90;;;3.67;;
75537;SDS011;64121;48.666;8.114;2023-06-26T11:02:52;5.43;;;3.83;;
75537;SDS011;64121;48.666;8.114;2023-06-26T11:05:26;4.50;;;3.45;;
75537;SDS011;64121;48.666;8.114;2023-06-26T11:08:02;4.50;;;3.50;;
75537;SDS011;64121;48.666;8.114;2023-06-26T11:10:28;4.55;;;3.08;;
75537;SDS011;64121;48.666;8.114;2023-06-26T11:12:53;6.53;;;3.35;;
75537;SDS011;64121;48.666;8.114;2023-06-26T11:15:22;6.80;;;3.30;;
75537;SDS011;64121;48.666;8.114;2023-06-26T11:17:51;4.20;;;3.40;;
75537;SDS011;64121;48.666;8.114;2023-06-26T11:20:17;4.97;;;3.83;;
75537;SDS011;64121;48.666;8.114;2023-06-26T11:22:43;4.25;;;3.20;;
75537;SDS011;64121;48.666;8.114;2023-06-26T11:25:10;6.80;;;3.45;;
75537;SDS011;64121;48.666;8.114;2023-06-26T11:27:37;5.25;;;3.58;;
75537;SDS011;64121;48.666;8.114;2023-06-26T11:30:03;5.70;;;3.63;;
75537;SDS011;64121;48.666;8.114;2023-06-26T11:32:30;4.88;;;3.40;;
75537;SDS011;64121;48.666;8.114;2023-06-26T11:34:55;6.55;;;3.50;;
75537;SDS011;64121;48.666;8.114;2023-06-26T11:37:21;5.95;;;3.25;;
75537;SDS011;64121;48.666;8.114;2023-06-26T11:39:48;4.40;;;3.42;;
75537;SDS011;64121;48.666;8.114;2023-06-26T11:42:13;4.07;;;2.60;;
75537;SDS011;64121;48.666;8.114;2023-06-26T11:44:39;4.07;;;3.10;;
75537;SDS011;64121;48.666;8.114;2023-06-26T11:47:06;5.88;;;2.78;;
75537;SDS011;64121;48.666;8.114;2023-06-26T11:49:31;6.65;;;2.70;;
75537;SDS011;64121;48.666;8.114;2023-06-26T11:51:57;5.38;;;2.83;;
75537;SDS011;64121;48.666;8.114;2023-06-26T11:54:25;5.13;;;2.70;;
75537;SDS011;64121;48.666;8.114;2023-06-26T11:56:54;5.13;;;3.05;;
75537;SDS011;64121;48.666;8.114;2023-06-26T11:59:20;4.35;;;3.20;;
75537;SDS011;64121;48.666;8.114;2023-06-26T12:01:45;3.40;;;2.92;;
75537;SDS011;64121;48.666;8.114;2023-06-26T12:04:11;4.75;;;2.90;;
75537;SDS011;64121;48.666;8.114;2023-06-26T12:06:40;3.55;;;2.38;;
75537;SDS011;64121;48.666;8.114;2023-06-26T12:09:08;3.90;;;2.63;;
75537;SDS011;64121;48.666;8.114;2023-06-26T12:11:34;3.00;;;2.67;;
75537;SDS011;64121;48.666;8.114;2023-06-26T12:14:03;3.97;;;2.83;;
75537;SDS011;64121;48.666;8.114;2023-06-26T12:16:30;3.80;;;2.75;;
75537;SDS011;64121;48.666;8.114;2023-06-26T12:18:57;4.03;;;2.75;;
75537;SDS011;64121;48.666;8.114;2023-06-26T12:24:25;3.88;;;2.70;;
75537;SDS011;64121;48.666;8.114;2023-06-26T12:26:51;5.55;;;2.63;;
75537;SDS011;64121;48.666;8.114;2023-06-26T12:29:19;3.85;;;3.28;;
75537;SDS011;64121;48.666;8.114;2023-06-26T12:31:46;7.63;;;3.58;;
75537;SDS011;64121;48.666;8.114;2023-06-26T12:34:15;7.90;;;3.40;;
75537;SDS011;64121;48.666;8.114;2023-06-26T12:36:43;8.73;;;3.15;;
75537;SDS011;64121;48.666;8.114;2023-06-26T12:39:09;6.82;;;3.60;;
75537;SDS011;64121;48.666;8.114;2023-06-26T12:41:36;7.32;;;2.97;;
75537;SDS011;64121;48.666;8.114;2023-06-26T12:44:15;5.97;;;3.47;;
75537;SDS011;64121;48.666;8.114;2023-06-26T12:46:43;3.08;;;2.55;;
75537;SDS011;64121;48.666;8.114;2023-06-26T12:49:08;6.25;;;3.20;;
75537;SDS011;64121;48.666;8.114;2023-06-26T12:51:33;11.68;;;3.67;;
75537;SDS011;64121;48.666;8.114;2023-06-26T12:53:59;5.28;;;3.30;;
75537;SDS011;64121;48.666;8.114;2023-06-26T12:56:24;12.18;;;3.72;;
75537;SDS011;64121;48.666;8.114;2023-06-26T12:58:49;4.20;;;3.00;;
75537;SDS011;64121;48.666;8.114;2023-06-26T13:01:15;4.65;;;3.20;;
75537;SDS011;64121;48.666;8.114;2023-06-26T13:03:41;15.32;;;4.70;;
75537;SDS011;64121;48.666;8.114;2023-06-26T13:06:07;4.55;;;2.75;;
75537;SDS011;64121;48.666;8.114;2023-06-26T13:08:32;6.40;;;3.58;;
75537;SDS011;64121;48.666;8.114;2023-06-26T13:10:58;7.05;;;3.38;;
75537;SDS011;64121;48.666;8.114;2023-06-26T13:13:23;5.10;;;3.25;;
75537;SDS011;64121;48.666;8.114;2023-06-26T13:15:48;4.47;;;2.90;;
75537;SDS011;64121;48.666;8.114;2023-06-26T13:18:14;4.70;;;3.28;;
75537;SDS011;64121;48.666;8.114;2023-06-26T13:20:41;4.65;;;3.25;;
75537;SDS011;64121;48.666;8.114;2023-06-26T13:23:06;4.97;;;3.47;;
75537;SDS011;64121;48.666;8.114;2023-06-26T13:25:31;4.05;;;3.15;;
75537;SDS011;64121;48.666;8.114;2023-06-26T13:27:57;5.30;;;3.97;;
75537;SDS011;64121;48.666;8.114;2023-06-26T13:30:22;4.95;;;2.80;;
75537;SDS011;64121;48.666;8.114;2023-06-26T13:32:47;5.68;;;3.47;;
75537;SDS011;64121;48.666;8.114;2023-06-26T13:35:13;4.75;;;3.60;;
75537;SDS011;64121;48.666;8.114;2023-06-26T13:37:39;5.60;;;3.88;;
75537;SDS011;64121;48.666;8.114;2023-06-26T13:40:05;8.20;;;4.63;;
75537;SDS011;64121;48.666;8.114;2023-06-26T13:42:31;8.15;;;4.63;;
75537;SDS011;64121;48.666;8.114;2023-06-26T13:44:57;11.45;;;4.28;;
75537;SDS011;64121;48.666;8.114;2023-06-26T13:47:22;10.90;;;4.30;;
75537;SDS011;64121;48.666;8.114;2023-06-26T13:49:48;8.20;;;4.30;;
75537;SDS011;64121;48.666;8.114;2023-06-26T13:52:13;7.05;;;4.45;;
75537;SDS011;64121;48.666;8.114;2023-06-26T13:54:40;6.32;;;4.45;;
75537;SDS011;64121;48.666;8.114;2023-06-26T13:57:05;10.18;;;4.85;;
75537;SDS011;64121;48.666;8.114;2023-06-26T13:59:31;10.15;;;5.50;;
75537;SDS011;64121;48.666;8.114;2023-06-26T14:01:57;8.52;;;4.65;;
75537;SDS011;64121;48.666;8.114;2023-06-26T14:04:23;7.63;;;4.68;;
75537;SDS011;64121;48.666;8.114;2023-06-26T14:06:48;7.32;;;4.57;;
75537;SDS011;64121;48.666;8.114;2023-06-26T14:09:13;8.60;;;4.90;;
75537;SDS011;64121;48.666;8.114;2023-06-26T14:11:40;5.18;;;4.50;;
75537;SDS011;64121;48.666;8.114;2023-06-26T14:14:05;7.68;;;5.03;;
75537;SDS011;64121;48.666;8.114;2023-06-26T14:16:31;6.30;;;5.00;;
75537;SDS011;64121;48.666;8.114;2023-06-26T14:18:57;6.07;;;4.90;;
75537;SDS011;64121;48.666;8.114;2023-06-26T14:21:22;8.52;;;5.53;;
75537;SDS011;64121;48.666;8.114;2023-06-26T14:23:48;5.75;;;4.40;;
75537;SDS011;64121;48.666;8.114;2023-06-26T14:26:13;8.05;;;4.88;;
75537;SDS011;64121;48.666;8.114;2023-06-26T14:28:40;7.20;;;5.25;;
75537;SDS011;64121;48.666;8.114;2023-06-26T14:31:05;6.35;;;5.03;;
75537;SDS011;64121;48.666;8.114;2023-06-26T14:33:30;7.50;;;4.93;;
75537;SDS011;64121;48.666;8.114;2023-06-26T14:35:56;7.75;;;5.65;;
75537;SDS011;64121;48.666;8.114;2023-06-26T14:38:21;8.10;;;5.35;;
75537;SDS011;64121;48.666;8.114;2023-06-26T14:40:47;8.02;;;5.75;;
75537;SDS011;64121;48.666;8.114;2023-06-26T14:43:12;6.78;;;5.43;;
75537;SDS011;64121;48.666;8.114;2023-06-26T14:45:39;12.23;;;5.75;;